createdAt,value
2017-06-17T00:00:07.831Z,0
2017-06-17T00:01:09.266Z,0
2017-06-17T00:02:10.716Z,0
2017-06-17T00:03:12.156Z,0
2017-06-17T00:04:13.592Z,0
2017-06-17T00:05:15.029Z,0
2017-06-17T00:06:16.484Z,0
2017-06-17T00:07:17.942Z,0
2017-06-17T00:08:19.391Z,0
2017-06-17T00:09:20.833Z,0
2017-06-17T00:10:22.267Z,0
2017-06-17T00:11:23.706Z,0
2017-06-17T00:12:25.148Z,0
2017-06-17T00:13:26.589Z,0
2017-06-17T00:14:28.018Z,0
2017-06-17T00:15:29.494Z,0
2017-06-17T00:16:30.925Z,0
2017-06-17T00:17:32.363Z,0
2017-06-17T00:18:33.804Z,0
2017-06-17T00:19:35.243Z,0
2017-06-17T00:20:36.677Z,0
2017-06-17T00:21:38.106Z,0
2017-06-17T00:22:39.555Z,0
2017-06-17T00:23:40.982Z,0
2017-06-17T00:24:42.427Z,0
2017-06-17T00:25:43.871Z,0
2017-06-17T00:26:45.313Z,0
2017-06-17T00:27:46.758Z,0
2017-06-17T00:28:48.196Z,0
2017-06-17T00:29:49.648Z,0
2017-06-17T00:30:51.085Z,0
2017-06-17T00:31:52.526Z,0
2017-06-17T00:32:53.964Z,0
2017-06-17T00:33:55.408Z,0
2017-06-17T00:34:56.840Z,0
2017-06-17T00:35:58.271Z,0
2017-06-17T00:36:59.771Z,0
2017-06-17T00:38:01.253Z,0
2017-06-17T00:39:02.697Z,0
2017-06-17T00:40:04.128Z,0
2017-06-17T00:41:05.567Z,0
2017-06-17T00:42:06.993Z,0
2017-06-17T00:43:08.434Z,0
2017-06-17T00:44:09.866Z,0
2017-06-17T00:45:11.357Z,0
2017-06-17T00:46:12.787Z,0
2017-06-17T00:47:14.225Z,0
2017-06-17T00:48:15.663Z,0
2017-06-17T00:49:17.094Z,0
2017-06-17T00:50:18.529Z,0
2017-06-17T00:51:19.971Z,0
2017-06-17T00:52:21.408Z,0
2017-06-17T00:53:22.840Z,0
2017-06-17T00:54:24.282Z,0
2017-06-17T00:55:25.739Z,0
2017-06-17T00:56:27.180Z,0
2017-06-17T00:57:28.613Z,0
2017-06-17T00:58:30.043Z,0
2017-06-17T00:59:31.520Z,0
2017-06-17T01:00:32.958Z,0
2017-06-17T01:01:34.386Z,0
2017-06-17T01:02:35.832Z,0
2017-06-17T01:03:37.261Z,0
2017-06-17T01:04:38.688Z,0
2017-06-17T01:05:40.126Z,0
2017-06-17T01:06:41.572Z,0
2017-06-17T01:07:43.012Z,0
2017-06-17T01:08:44.462Z,0
2017-06-17T01:09:45.926Z,0
2017-06-17T01:10:47.363Z,0
2017-06-17T01:11:48.791Z,0
2017-06-17T01:12:50.230Z,0
2017-06-17T01:13:51.673Z,0
2017-06-17T01:14:53.139Z,0
2017-06-17T01:15:54.587Z,0
2017-06-17T01:16:56.051Z,0
2017-06-17T01:17:57.487Z,0
2017-06-17T01:18:58.919Z,0
2017-06-17T01:20:00.365Z,0
2017-06-17T01:21:01.798Z,0
2017-06-17T01:22:03.233Z,0
2017-06-17T01:23:04.671Z,0
2017-06-17T01:24:06.110Z,0
2017-06-17T01:25:07.550Z,0
2017-06-17T01:26:08.986Z,0
2017-06-17T01:27:10.420Z,0
2017-06-17T01:28:11.859Z,0
2017-06-17T01:29:13.288Z,0
2017-06-17T01:30:14.734Z,0
2017-06-17T01:31:16.167Z,0
2017-06-17T01:32:17.601Z,0
2017-06-17T01:33:19.034Z,0
2017-06-17T01:34:20.485Z,0
2017-06-17T01:35:21.917Z,0
2017-06-17T01:36:23.352Z,0
2017-06-17T01:37:24.794Z,0
2017-06-17T01:38:26.233Z,0
2017-06-17T01:39:27.673Z,0
2017-06-17T01:40:29.101Z,0
2017-06-17T01:41:30.532Z,0
2017-06-17T01:42:31.970Z,0
2017-06-17T01:43:33.401Z,0
2017-06-17T01:44:34.849Z,0
2017-06-17T01:45:36.288Z,0
2017-06-17T01:46:37.722Z,0
2017-06-17T01:47:39.170Z,0
2017-06-17T01:48:40.604Z,0
2017-06-17T01:49:42.046Z,0
2017-06-17T01:50:43.479Z,0
2017-06-17T01:51:44.909Z,0
2017-06-17T01:52:46.341Z,0
2017-06-17T01:53:47.787Z,0
2017-06-17T01:54:49.220Z,0
2017-06-17T01:55:50.653Z,0
2017-06-17T01:56:52.092Z,0
2017-06-17T01:57:53.528Z,0
2017-06-17T01:58:54.965Z,0
2017-06-17T01:59:56.407Z,0
2017-06-17T02:00:57.853Z,0
2017-06-17T02:01:59.291Z,0
2017-06-17T02:03:00.729Z,0
2017-06-17T02:04:02.161Z,0
2017-06-17T02:05:03.599Z,0
2017-06-17T02:06:05.031Z,0
2017-06-17T02:07:06.472Z,0
2017-06-17T02:08:07.906Z,0
2017-06-17T02:09:09.344Z,0
2017-06-17T02:10:10.775Z,0
2017-06-17T02:11:12.208Z,0
2017-06-17T02:12:13.637Z,0
2017-06-17T02:13:15.075Z,0
2017-06-17T02:14:16.514Z,0
2017-06-17T02:15:17.947Z,0
2017-06-17T02:16:19.385Z,0
2017-06-17T02:17:20.817Z,0
2017-06-17T02:18:22.258Z,0
2017-06-17T02:19:23.693Z,0
2017-06-17T02:20:25.129Z,0
2017-06-17T02:21:26.567Z,0
2017-06-17T02:22:28.001Z,0
2017-06-17T02:23:29.432Z,0
2017-06-17T02:24:30.871Z,0
2017-06-17T02:25:32.312Z,0
2017-06-17T02:26:33.748Z,0
2017-06-17T02:27:35.188Z,0
2017-06-17T02:28:36.632Z,0
2017-06-17T02:29:38.061Z,0
2017-06-17T02:30:39.507Z,0
2017-06-17T02:31:40.942Z,0
2017-06-17T02:32:42.380Z,0
2017-06-17T02:33:43.808Z,0
2017-06-17T02:34:45.247Z,0
2017-06-17T02:35:46.690Z,0
2017-06-17T02:36:48.122Z,0
2017-06-17T02:37:49.557Z,0
2017-06-17T02:38:50.990Z,0
2017-06-17T02:39:52.423Z,0
2017-06-17T02:40:53.854Z,0
2017-06-17T02:41:55.294Z,0
2017-06-17T02:42:56.725Z,0
2017-06-17T02:43:58.155Z,0
2017-06-17T02:44:59.587Z,0
2017-06-17T02:46:01.020Z,0
2017-06-17T02:47:02.457Z,0
2017-06-17T02:48:03.885Z,0
2017-06-17T02:49:05.321Z,0
2017-06-17T02:50:06.755Z,0
2017-06-17T02:51:08.188Z,0
2017-06-17T02:52:09.621Z,0
2017-06-17T02:53:11.055Z,0
2017-06-17T02:54:12.487Z,0
2017-06-17T02:55:13.924Z,0
2017-06-17T02:56:15.357Z,0
2017-06-17T02:57:16.788Z,0
2017-06-17T02:58:18.222Z,0
2017-06-17T02:59:19.652Z,0
2017-06-17T03:00:21.086Z,0
2017-06-17T03:01:22.527Z,0
2017-06-17T03:02:23.962Z,0
2017-06-17T03:03:25.399Z,0
2017-06-17T03:04:26.840Z,0
2017-06-17T03:05:28.273Z,0
2017-06-17T03:06:29.702Z,0
2017-06-17T03:07:31.133Z,0
2017-06-17T03:08:32.571Z,0
2017-06-17T03:09:34.023Z,0
2017-06-17T03:10:35.455Z,0
2017-06-17T03:11:36.887Z,0
2017-06-17T03:12:38.316Z,0
2017-06-17T03:13:39.749Z,0
2017-06-17T03:14:41.185Z,0
2017-06-17T03:15:42.622Z,0
2017-06-17T03:16:44.060Z,0
2017-06-17T03:17:45.496Z,0
2017-06-17T03:18:46.937Z,0
2017-06-17T03:19:48.373Z,0
2017-06-17T03:20:49.809Z,0
2017-06-17T03:21:51.240Z,0
2017-06-17T03:22:52.682Z,0
2017-06-17T03:23:54.131Z,4
2017-06-17T03:24:55.640Z,4
2017-06-17T03:25:57.075Z,4
2017-06-17T03:26:58.514Z,4
2017-06-17T03:27:59.945Z,4
2017-06-17T03:29:01.387Z,4
2017-06-17T03:30:02.824Z,4
2017-06-17T03:31:04.260Z,4
2017-06-17T03:32:05.729Z,4
2017-06-17T03:33:07.171Z,4
2017-06-17T03:34:08.613Z,0
2017-06-17T03:35:10.049Z,0
2017-06-17T03:36:11.486Z,0
2017-06-17T03:37:12.927Z,4
2017-06-17T03:38:14.365Z,4
2017-06-17T03:39:15.801Z,4
2017-06-17T03:40:17.239Z,4
2017-06-17T03:41:18.675Z,4
2017-06-17T03:42:20.112Z,4
2017-06-17T03:43:21.559Z,4
2017-06-17T03:44:22.997Z,4
2017-06-17T03:45:24.434Z,4
2017-06-17T03:46:25.877Z,4
2017-06-17T03:47:27.316Z,8
2017-06-17T03:48:28.746Z,8
2017-06-17T03:49:30.181Z,8
2017-06-17T03:50:31.614Z,8
2017-06-17T03:51:33.055Z,8
2017-06-17T03:52:34.486Z,4
2017-06-17T03:53:35.953Z,4
2017-06-17T03:54:37.381Z,4
2017-06-17T03:55:38.820Z,4
2017-06-17T03:56:40.252Z,8
2017-06-17T03:57:41.686Z,8
2017-06-17T03:58:43.124Z,8
2017-06-17T03:59:44.568Z,8
2017-06-17T04:00:46.002Z,8
2017-06-17T04:01:47.448Z,8
2017-06-17T04:02:48.879Z,8
2017-06-17T04:03:50.317Z,8
2017-06-17T04:04:51.759Z,8
2017-06-17T04:05:53.188Z,12
2017-06-17T04:06:54.625Z,8
2017-06-17T04:07:56.064Z,8
2017-06-17T04:08:57.501Z,8
2017-06-17T04:09:58.934Z,8
2017-06-17T04:11:00.369Z,8
2017-06-17T04:12:01.806Z,8
2017-06-17T04:13:03.237Z,8
2017-06-17T04:14:04.672Z,8
2017-06-17T04:15:06.107Z,12
2017-06-17T04:16:07.534Z,12
2017-06-17T04:17:08.965Z,12
2017-06-17T04:18:10.402Z,12
2017-06-17T04:19:11.849Z,12
2017-06-17T04:20:13.291Z,12
2017-06-17T04:21:14.719Z,8
2017-06-17T04:22:16.157Z,8
2017-06-17T04:23:17.590Z,12
2017-06-17T04:24:19.025Z,12
2017-06-17T04:25:20.458Z,12
2017-06-17T04:26:21.897Z,12
2017-06-17T04:27:23.331Z,12
2017-06-17T04:28:24.767Z,12
2017-06-17T04:29:26.216Z,12
2017-06-17T04:30:27.642Z,12
2017-06-17T04:31:29.077Z,12
2017-06-17T04:32:30.513Z,16
2017-06-17T04:33:31.947Z,16
2017-06-17T04:34:33.385Z,16
2017-06-17T04:35:34.823Z,16
2017-06-17T04:36:36.257Z,12
2017-06-17T04:37:37.693Z,12
2017-06-17T04:38:39.129Z,12
2017-06-17T04:39:40.563Z,12
2017-06-17T04:40:41.992Z,12
2017-06-17T04:41:43.426Z,16
2017-06-17T04:42:44.861Z,16
2017-06-17T04:43:46.298Z,16
2017-06-17T04:44:47.738Z,16
2017-06-17T04:45:49.169Z,16
2017-06-17T04:46:50.611Z,16
2017-06-17T04:47:52.045Z,16
2017-06-17T04:48:53.474Z,16
2017-06-17T04:49:54.916Z,12
2017-06-17T04:50:56.367Z,16
2017-06-17T04:51:57.804Z,16
2017-06-17T04:52:59.232Z,16
2017-06-17T04:54:00.677Z,16
2017-06-17T04:55:02.107Z,16
2017-06-17T04:56:03.547Z,16
2017-06-17T04:57:04.981Z,16
2017-06-17T04:58:06.417Z,16
2017-06-17T04:59:07.855Z,20
2017-06-17T05:00:09.285Z,20
2017-06-17T05:01:10.718Z,20
2017-06-17T05:02:12.158Z,20
2017-06-17T05:03:13.597Z,20
2017-06-17T05:04:15.032Z,16
2017-06-17T05:05:16.468Z,16
2017-06-17T05:06:17.909Z,16
2017-06-17T05:07:19.343Z,16
2017-06-17T05:08:20.776Z,20
2017-06-17T05:09:22.207Z,20
2017-06-17T05:10:23.646Z,20
2017-06-17T05:11:25.087Z,20
2017-06-17T05:12:26.526Z,20
2017-06-17T05:13:27.959Z,20
2017-06-17T05:14:29.409Z,20
2017-06-17T05:15:30.846Z,20
2017-06-17T05:16:32.282Z,20
2017-06-17T05:17:33.723Z,24
2017-06-17T05:18:35.155Z,20
2017-06-17T05:19:36.590Z,20
2017-06-17T05:20:38.030Z,20
2017-06-17T05:21:39.462Z,20
2017-06-17T05:22:40.894Z,20
2017-06-17T05:23:42.328Z,20
2017-06-17T05:24:43.765Z,20
2017-06-17T05:25:45.203Z,20
2017-06-17T05:26:46.642Z,20
2017-06-17T05:27:48.081Z,24
2017-06-17T05:28:49.539Z,24
2017-06-17T05:29:50.974Z,24
2017-06-17T05:30:52.402Z,24
2017-06-17T05:31:53.842Z,24
2017-06-17T05:32:55.283Z,20
2017-06-17T05:33:56.722Z,20
2017-06-17T05:34:58.161Z,20
2017-06-17T05:35:59.591Z,20
2017-06-17T05:37:01.026Z,24
2017-06-17T05:38:02.454Z,24
2017-06-17T05:39:03.895Z,24
2017-06-17T05:40:05.348Z,24
2017-06-17T05:41:06.778Z,24
2017-06-17T05:42:08.237Z,24
2017-06-17T05:43:09.656Z,24
2017-06-17T05:44:11.100Z,24
2017-06-17T05:45:12.542Z,24
2017-06-17T05:46:13.982Z,24
2017-06-17T05:47:15.418Z,28
2017-06-17T05:48:16.856Z,28
2017-06-17T05:49:18.300Z,24
2017-06-17T05:50:19.727Z,24
2017-06-17T05:51:21.162Z,24
2017-06-17T05:52:22.593Z,24
2017-06-17T05:53:24.045Z,28
2017-06-17T05:54:25.482Z,24
2017-06-17T05:55:26.926Z,28
2017-06-17T05:56:28.361Z,28
2017-06-17T05:57:29.810Z,32
2017-06-17T05:58:31.242Z,32
2017-06-17T05:59:32.672Z,28
2017-06-17T06:00:34.122Z,28
2017-06-17T06:01:35.563Z,32
2017-06-17T06:02:37.001Z,32
2017-06-17T06:03:38.441Z,36
2017-06-17T06:04:39.877Z,40
2017-06-17T06:05:41.310Z,40
2017-06-17T06:06:42.743Z,40
2017-06-17T06:07:44.184Z,40
2017-06-17T06:08:45.619Z,40
2017-06-17T06:09:47.062Z,40
2017-06-17T06:10:48.501Z,40
2017-06-17T06:11:49.994Z,40
2017-06-17T06:12:51.425Z,36
2017-06-17T06:13:52.892Z,32
2017-06-17T06:14:54.327Z,36
2017-06-17T06:15:55.804Z,32
2017-06-17T06:16:57.238Z,32
2017-06-17T06:17:58.692Z,32
2017-06-17T06:19:00.124Z,32
2017-06-17T06:20:01.559Z,32
2017-06-17T06:21:03.000Z,28
2017-06-17T06:22:04.439Z,32
2017-06-17T06:23:05.881Z,32
2017-06-17T06:24:07.327Z,28
2017-06-17T06:25:08.759Z,36
2017-06-17T06:26:10.206Z,32
2017-06-17T06:27:11.640Z,32
2017-06-17T06:28:13.082Z,32
2017-06-17T06:29:14.515Z,36
2017-06-17T06:30:15.949Z,40
2017-06-17T06:31:17.387Z,40
2017-06-17T06:32:18.819Z,40
2017-06-17T06:33:20.261Z,40
2017-06-17T06:34:21.702Z,32
2017-06-17T06:35:23.803Z,32
2017-06-17T06:36:25.252Z,32
2017-06-17T06:37:26.700Z,28
2017-06-17T06:38:28.174Z,28
2017-06-17T06:39:29.654Z,28
2017-06-17T06:40:31.085Z,28
2017-06-17T06:41:32.524Z,28
2017-06-17T06:42:33.957Z,28
2017-06-17T06:43:35.413Z,28
2017-06-17T06:44:36.832Z,28
2017-06-17T06:45:38.264Z,28
2017-06-17T06:46:39.700Z,28
2017-06-17T06:47:41.141Z,28
2017-06-17T06:48:42.583Z,28
2017-06-17T06:49:44.021Z,28
2017-06-17T06:50:45.464Z,32
2017-06-17T06:51:46.895Z,32
2017-06-17T06:52:48.339Z,32
2017-06-17T06:53:49.774Z,32
2017-06-17T06:54:51.207Z,32
2017-06-17T06:55:52.646Z,28
2017-06-17T06:56:54.080Z,28
2017-06-17T06:57:55.519Z,28
2017-06-17T06:58:56.965Z,28
2017-06-17T06:59:58.398Z,32
2017-06-17T07:00:59.845Z,32
2017-06-17T07:02:01.281Z,32
2017-06-17T07:03:02.712Z,32
2017-06-17T07:04:04.152Z,32
2017-06-17T07:05:05.587Z,36
2017-06-17T07:06:07.030Z,40
2017-06-17T07:07:08.471Z,36
2017-06-17T07:08:09.941Z,36
2017-06-17T07:09:11.353Z,40
2017-06-17T07:10:12.791Z,36
2017-06-17T07:11:14.233Z,28
2017-06-17T07:12:15.674Z,24
2017-06-17T07:13:17.117Z,28
2017-06-17T07:14:18.558Z,24
2017-06-17T07:15:20.000Z,24
2017-06-17T07:16:21.440Z,24
2017-06-17T07:17:22.878Z,24
2017-06-17T07:18:24.316Z,24
2017-06-17T07:19:25.756Z,20
2017-06-17T07:20:27.205Z,24
2017-06-17T07:21:28.645Z,24
2017-06-17T07:22:30.085Z,24
2017-06-17T07:23:31.518Z,24
2017-06-17T07:24:32.959Z,24
2017-06-17T07:25:34.397Z,20
2017-06-17T07:26:35.837Z,20
2017-06-17T07:27:37.278Z,20
2017-06-17T07:28:38.720Z,20
2017-06-17T07:29:40.193Z,20
2017-06-17T07:30:41.620Z,20
2017-06-17T07:31:43.059Z,20
2017-06-17T07:32:44.497Z,20
2017-06-17T07:33:45.933Z,20
2017-06-17T07:34:47.369Z,20
2017-06-17T07:35:48.808Z,20
2017-06-17T07:36:50.246Z,24
2017-06-17T07:37:51.689Z,20
2017-06-17T07:38:53.125Z,24
2017-06-17T07:39:54.560Z,24
2017-06-17T07:40:56.007Z,24
2017-06-17T07:41:57.447Z,24
2017-06-17T07:42:58.886Z,24
2017-06-17T07:44:00.323Z,24
2017-06-17T07:45:01.754Z,28
2017-06-17T07:46:03.196Z,24
2017-06-17T07:47:04.680Z,28
2017-06-17T07:48:06.112Z,28
2017-06-17T07:49:07.556Z,28
2017-06-17T07:50:08.984Z,32
2017-06-17T07:51:10.434Z,32
2017-06-17T07:52:11.865Z,36
2017-06-17T07:53:13.305Z,36
2017-06-17T07:54:14.764Z,36
2017-06-17T07:55:16.205Z,44
2017-06-17T07:56:17.638Z,44
2017-06-17T07:57:19.075Z,44
2017-06-17T07:58:20.516Z,40
2017-06-17T07:59:21.948Z,44
2017-06-17T08:00:23.393Z,52
2017-06-17T08:01:24.821Z,48
2017-06-17T08:02:26.262Z,40
2017-06-17T08:03:27.699Z,40
2017-06-17T08:04:29.144Z,36
2017-06-17T08:05:30.576Z,36
2017-06-17T08:06:32.019Z,32
2017-06-17T08:07:33.450Z,32
2017-06-17T08:08:34.889Z,32
2017-06-17T08:09:36.330Z,36
2017-06-17T08:10:37.765Z,36
2017-06-17T08:11:39.202Z,32
2017-06-17T08:12:40.650Z,36
2017-06-17T08:13:42.081Z,36
2017-06-17T08:14:43.516Z,36
2017-06-17T08:15:44.949Z,40
2017-06-17T08:16:46.382Z,44
2017-06-17T08:17:47.822Z,44
2017-06-17T08:18:49.263Z,48
2017-06-17T08:19:50.695Z,52
2017-06-17T08:20:52.130Z,48
2017-06-17T08:21:53.567Z,44
2017-06-17T08:22:55.003Z,48
2017-06-17T08:23:56.437Z,48
2017-06-17T08:24:57.876Z,44
2017-06-17T08:25:59.314Z,44
2017-06-17T08:27:00.760Z,40
2017-06-17T08:28:02.194Z,44
2017-06-17T08:29:03.627Z,44
2017-06-17T08:30:05.059Z,44
2017-06-17T08:31:06.501Z,36
2017-06-17T08:32:07.951Z,36
2017-06-17T08:33:09.389Z,32
2017-06-17T08:34:10.833Z,32
2017-06-17T08:35:12.441Z,28
2017-06-17T08:36:13.881Z,28
2017-06-17T08:37:15.327Z,28
2017-06-17T08:38:16.764Z,28
2017-06-17T08:39:18.199Z,28
2017-06-17T08:40:19.638Z,28
2017-06-17T08:41:21.079Z,28
2017-06-17T08:42:22.511Z,24
2017-06-17T08:43:23.953Z,28
2017-06-17T08:44:25.390Z,24
2017-06-17T08:45:26.844Z,24
2017-06-17T08:46:28.286Z,28
2017-06-17T08:47:29.717Z,28
2017-06-17T08:48:31.157Z,28
2017-06-17T08:49:32.604Z,24
2017-06-17T08:50:34.037Z,28
2017-06-17T08:51:35.478Z,24
2017-06-17T08:52:36.916Z,28
2017-06-17T08:53:38.358Z,28
2017-06-17T08:54:39.803Z,24
2017-06-17T08:55:41.236Z,24
2017-06-17T08:56:42.677Z,28
2017-06-17T08:57:44.113Z,28
2017-06-17T08:58:45.560Z,28
2017-06-17T08:59:46.998Z,28
2017-06-17T09:00:48.442Z,28
2017-06-17T09:01:49.879Z,28
2017-06-17T09:02:51.313Z,32
2017-06-17T09:03:52.742Z,32
2017-06-17T09:04:54.175Z,32
2017-06-17T09:05:55.613Z,36
2017-06-17T09:06:57.051Z,32
2017-06-17T09:07:58.493Z,32
2017-06-17T09:08:59.931Z,36
2017-06-17T09:10:01.371Z,36
2017-06-17T09:11:02.807Z,40
2017-06-17T09:12:04.254Z,40
2017-06-17T09:13:05.694Z,36
2017-06-17T09:14:07.137Z,40
2017-06-17T09:15:08.578Z,48
2017-06-17T09:16:10.034Z,48
2017-06-17T09:17:11.470Z,48
2017-06-17T09:18:12.915Z,48
2017-06-17T09:19:14.356Z,44
2017-06-17T09:20:15.793Z,44
2017-06-17T09:21:17.238Z,48
2017-06-17T09:22:18.674Z,48
2017-06-17T09:23:20.117Z,48
2017-06-17T09:24:21.549Z,48
2017-06-17T09:25:22.997Z,52
2017-06-17T09:26:24.438Z,48
2017-06-17T09:27:25.872Z,52
2017-06-17T09:28:27.317Z,52
2017-06-17T09:29:28.740Z,52
2017-06-17T09:30:30.188Z,48
2017-06-17T09:31:31.624Z,48
2017-06-17T09:32:33.058Z,48
2017-06-17T09:33:34.490Z,48
2017-06-17T09:34:35.922Z,52
2017-06-17T09:35:37.361Z,48
2017-06-17T09:36:38.800Z,48
2017-06-17T09:37:40.236Z,48
2017-06-17T09:38:41.681Z,52
2017-06-17T09:39:43.123Z,48
2017-06-17T09:40:44.555Z,52
2017-06-17T09:41:45.985Z,48
2017-06-17T09:42:47.424Z,48
2017-06-17T09:43:48.862Z,48
2017-06-17T09:44:50.304Z,48
2017-06-17T09:45:51.737Z,48
2017-06-17T09:46:53.174Z,44
2017-06-17T09:47:54.604Z,44
2017-06-17T09:48:56.044Z,40
2017-06-17T09:49:57.477Z,40
2017-06-17T09:50:58.935Z,40
2017-06-17T09:52:00.379Z,36
2017-06-17T09:53:01.820Z,36
2017-06-17T09:54:03.259Z,36
2017-06-17T09:55:04.699Z,36
2017-06-17T09:56:06.142Z,36
2017-06-17T09:57:07.569Z,36
2017-06-17T09:58:09.007Z,32
2017-06-17T09:59:10.459Z,32
2017-06-17T10:00:11.994Z,32
2017-06-17T10:01:13.440Z,32
2017-06-17T10:02:14.872Z,32
2017-06-17T10:03:16.307Z,40
2017-06-17T10:04:17.742Z,36
2017-06-17T10:05:19.179Z,36
2017-06-17T10:06:20.613Z,36
2017-06-17T10:07:22.078Z,40
2017-06-17T10:08:23.507Z,44
2017-06-17T10:09:24.946Z,44
2017-06-17T10:10:26.383Z,44
2017-06-17T10:11:27.822Z,44
2017-06-17T10:12:29.262Z,44
2017-06-17T10:13:30.691Z,44
2017-06-17T10:14:32.137Z,48
2017-06-17T10:15:33.571Z,44
2017-06-17T10:16:35.004Z,48
2017-06-17T10:17:36.453Z,48
2017-06-17T10:18:37.891Z,48
2017-06-17T10:19:39.330Z,52
2017-06-17T10:20:40.788Z,48
2017-06-17T10:21:42.263Z,44
2017-06-17T10:22:43.735Z,44
2017-06-17T10:23:45.175Z,44
2017-06-17T10:24:46.609Z,52
2017-06-17T10:25:48.058Z,52
2017-06-17T10:26:49.490Z,48
2017-06-17T10:27:50.929Z,48
2017-06-17T10:28:52.395Z,48
2017-06-17T10:29:53.838Z,52
2017-06-17T10:30:55.269Z,52
2017-06-17T10:31:56.703Z,52
2017-06-17T10:32:58.148Z,60
2017-06-17T10:33:59.586Z,60
2017-06-17T10:35:01.029Z,64
2017-06-17T10:36:02.511Z,64
2017-06-17T10:37:03.947Z,68
2017-06-17T10:38:05.382Z,68
2017-06-17T10:39:06.825Z,68
2017-06-17T10:40:08.268Z,68
2017-06-17T10:41:09.716Z,68
2017-06-17T10:42:11.157Z,68
2017-06-17T10:43:12.595Z,68
2017-06-17T10:44:14.072Z,64
2017-06-17T10:45:15.509Z,64
2017-06-17T10:46:16.955Z,64
2017-06-17T10:47:18.410Z,64
2017-06-17T10:48:19.846Z,64
2017-06-17T10:49:21.282Z,60
2017-06-17T10:50:22.723Z,56
2017-06-17T10:51:24.173Z,52
2017-06-17T10:52:25.611Z,52
2017-06-17T10:53:27.046Z,52
2017-06-17T10:54:28.488Z,52
2017-06-17T10:55:29.933Z,48
2017-06-17T10:56:31.368Z,48
2017-06-17T10:57:32.808Z,48
2017-06-17T10:58:35.055Z,48
2017-06-17T10:59:36.491Z,48
2017-06-17T11:00:37.936Z,48
2017-06-17T11:01:39.434Z,48
2017-06-17T11:02:41.064Z,52
2017-06-17T11:03:42.504Z,52
2017-06-17T11:04:43.941Z,56
2017-06-17T11:05:45.384Z,52
2017-06-17T11:06:46.825Z,52
2017-06-17T11:07:48.261Z,52
2017-06-17T11:08:49.713Z,52
2017-06-17T11:09:51.148Z,52
2017-06-17T11:10:52.581Z,48
2017-06-17T11:11:54.035Z,48
2017-06-17T11:12:55.463Z,52
2017-06-17T11:13:57.104Z,48
2017-06-17T11:14:58.535Z,52
2017-06-17T11:15:59.974Z,52
2017-06-17T11:17:01.417Z,52
2017-06-17T11:18:02.853Z,48
2017-06-17T11:19:04.288Z,48
2017-06-17T11:20:05.733Z,48
2017-06-17T11:21:07.167Z,44
2017-06-17T11:22:08.600Z,44
2017-06-17T11:23:10.044Z,40
2017-06-17T11:24:11.504Z,44
2017-06-17T11:25:12.947Z,40
2017-06-17T11:26:15.468Z,40
2017-06-17T11:27:18.951Z,36
2017-06-17T11:28:20.001Z,36
2017-06-17T11:29:21.437Z,32
2017-06-17T11:30:22.880Z,32
2017-06-17T11:31:24.325Z,32
2017-06-17T11:32:25.771Z,36
2017-06-17T11:33:27.209Z,40
2017-06-17T11:34:28.653Z,40
2017-06-17T11:35:30.094Z,36
2017-06-17T11:36:31.541Z,32
2017-06-17T11:37:32.978Z,32
2017-06-17T11:38:34.420Z,32
2017-06-17T11:39:35.857Z,32
2017-06-17T11:40:37.295Z,32
2017-06-17T11:41:38.740Z,28
2017-06-17T11:42:40.177Z,28
2017-06-17T11:43:41.620Z,28
2017-06-17T11:44:43.058Z,28
2017-06-17T11:45:44.498Z,28
2017-06-17T11:46:45.940Z,28
2017-06-17T11:47:47.385Z,28
2017-06-17T11:48:48.816Z,28
2017-06-17T11:49:50.260Z,28
2017-06-17T11:50:51.703Z,28
2017-06-17T11:51:53.129Z,28
2017-06-17T11:52:54.587Z,32
2017-06-17T11:53:56.028Z,28
2017-06-17T11:54:57.467Z,28
2017-06-17T11:55:58.908Z,28
2017-06-17T11:57:00.420Z,24
2017-06-17T11:58:01.865Z,28
2017-06-17T11:59:03.308Z,24
2017-06-17T12:00:04.978Z,24
2017-06-17T12:01:06.414Z,24
2017-06-17T12:02:07.855Z,24
2017-06-17T12:03:09.292Z,20
2017-06-17T12:04:10.723Z,20
2017-06-17T12:05:12.158Z,20
2017-06-17T12:06:13.589Z,24
2017-06-17T12:07:15.066Z,24
2017-06-17T12:08:16.503Z,24
2017-06-17T12:09:17.942Z,24
2017-06-17T12:10:20.032Z,24
2017-06-17T12:11:21.452Z,24
2017-06-17T12:12:22.894Z,24
2017-06-17T12:13:24.334Z,24
2017-06-17T12:14:26.154Z,24
2017-06-17T12:15:27.602Z,24
2017-06-17T12:16:29.038Z,28
2017-06-17T12:17:30.471Z,28
2017-06-17T12:18:31.923Z,28
2017-06-17T12:19:33.361Z,28
2017-06-17T12:20:34.802Z,28
2017-06-17T12:21:36.255Z,28
2017-06-17T12:22:37.889Z,32
2017-06-17T12:23:39.325Z,28
2017-06-17T12:24:40.763Z,28
2017-06-17T12:25:42.201Z,24
2017-06-17T12:26:43.640Z,24
2017-06-17T12:27:45.079Z,28
2017-06-17T12:28:46.511Z,24
2017-06-17T12:29:47.948Z,24
2017-06-17T12:30:49.391Z,24
2017-06-17T12:31:50.824Z,24
2017-06-17T12:32:52.256Z,24
2017-06-17T12:33:53.683Z,24
2017-06-17T12:34:55.129Z,20
2017-06-17T12:35:56.570Z,20
2017-06-17T12:36:58.014Z,20
2017-06-17T12:37:59.454Z,20
2017-06-17T12:39:00.889Z,20
2017-06-17T12:40:02.322Z,20
2017-06-17T12:41:03.752Z,20
2017-06-17T12:42:05.198Z,20
2017-06-17T12:43:06.632Z,24
2017-06-17T12:44:08.085Z,24
2017-06-17T12:45:09.525Z,24
2017-06-17T12:46:10.970Z,24
2017-06-17T12:47:12.398Z,24
2017-06-17T12:48:13.830Z,24
2017-06-17T12:49:15.263Z,24
2017-06-17T12:50:16.710Z,28
2017-06-17T12:51:18.152Z,32
2017-06-17T12:52:19.592Z,28
2017-06-17T12:53:21.034Z,32
2017-06-17T12:54:22.470Z,28
2017-06-17T12:55:23.910Z,28
2017-06-17T12:56:25.354Z,32
2017-06-17T12:57:26.789Z,32
2017-06-17T12:58:28.225Z,32
2017-06-17T12:59:29.666Z,32
2017-06-17T13:00:31.105Z,28
2017-06-17T13:01:32.544Z,28
2017-06-17T13:02:33.980Z,28
2017-06-17T13:03:35.419Z,36
2017-06-17T13:04:36.865Z,36
2017-06-17T13:05:38.296Z,36
2017-06-17T13:06:39.740Z,32
2017-06-17T13:07:41.168Z,32
2017-06-17T13:08:42.610Z,32
2017-06-17T13:09:44.044Z,36
2017-06-17T13:10:45.482Z,36
2017-06-17T13:11:46.915Z,36
2017-06-17T13:12:48.356Z,40
2017-06-17T13:13:49.799Z,36
2017-06-17T13:14:51.240Z,36
2017-06-17T13:15:52.672Z,36
2017-06-17T13:16:54.111Z,36
2017-06-17T13:17:55.541Z,32
2017-06-17T13:18:56.976Z,32
2017-06-17T13:19:58.414Z,32
2017-06-17T13:20:59.849Z,32
2017-06-17T13:22:01.277Z,32
2017-06-17T13:23:02.726Z,32
2017-06-17T13:24:04.157Z,36
2017-06-17T13:25:05.608Z,32
2017-06-17T13:26:07.033Z,32
2017-06-17T13:27:08.478Z,36
2017-06-17T13:28:09.924Z,32
2017-06-17T13:29:11.355Z,32
2017-06-17T13:30:12.815Z,32
2017-06-17T13:31:14.255Z,32
2017-06-17T13:32:15.695Z,32
2017-06-17T13:33:17.137Z,32
2017-06-17T13:34:18.582Z,28
2017-06-17T13:35:20.026Z,32
2017-06-17T13:36:21.463Z,28
2017-06-17T13:37:22.899Z,28
2017-06-17T13:38:24.338Z,24
2017-06-17T13:39:25.774Z,28
2017-06-17T13:40:27.226Z,24
2017-06-17T13:41:28.670Z,24
2017-06-17T13:42:30.105Z,24
2017-06-17T13:43:31.543Z,24
2017-06-17T13:44:32.978Z,24
2017-06-17T13:45:34.420Z,24
2017-06-17T13:46:35.859Z,24
2017-06-17T13:47:37.295Z,24
2017-06-17T13:48:38.737Z,20
2017-06-17T13:49:40.177Z,20
2017-06-17T13:50:41.612Z,20
2017-06-17T13:51:43.043Z,20
2017-06-17T13:52:44.480Z,20
2017-06-17T13:53:45.931Z,20
2017-06-17T13:54:47.376Z,20
2017-06-17T13:55:48.819Z,16
2017-06-17T13:56:50.288Z,16
2017-06-17T13:57:51.723Z,20
2017-06-17T13:58:53.173Z,20
2017-06-17T13:59:54.603Z,20
2017-06-17T14:00:56.149Z,16
2017-06-17T14:01:57.634Z,16
2017-06-17T14:02:59.061Z,16
2017-06-17T14:04:00.500Z,16
2017-06-17T14:05:01.930Z,16
2017-06-17T14:06:03.363Z,16
2017-06-17T14:07:04.796Z,16
2017-06-17T14:08:06.249Z,16
2017-06-17T14:09:07.692Z,16
2017-06-17T14:10:09.129Z,16
2017-06-17T14:11:10.562Z,16
2017-06-17T14:12:11.999Z,16
2017-06-17T14:13:13.440Z,12
2017-06-17T14:14:14.875Z,12
2017-06-17T14:15:16.316Z,12
2017-06-17T14:16:17.750Z,12
2017-06-17T14:17:19.185Z,12
2017-06-17T14:18:20.628Z,16
2017-06-17T14:19:22.136Z,16
2017-06-17T14:20:23.579Z,16
2017-06-17T14:21:25.014Z,16
2017-06-17T14:22:26.448Z,16
2017-06-17T14:23:27.891Z,16
2017-06-17T14:24:29.324Z,16
2017-06-17T14:25:30.765Z,16
2017-06-17T14:26:32.244Z,16
2017-06-17T14:27:33.684Z,16
2017-06-17T14:28:35.126Z,16
2017-06-17T14:29:36.564Z,12
2017-06-17T14:30:38.006Z,16
2017-06-17T14:31:39.442Z,16
2017-06-17T14:32:40.885Z,16
2017-06-17T14:33:42.322Z,16
2017-06-17T14:34:43.759Z,16
2017-06-17T14:35:45.194Z,16
2017-06-17T14:36:46.637Z,16
2017-06-17T14:37:48.076Z,16
2017-06-17T14:38:49.520Z,16
2017-06-17T14:39:50.954Z,16
2017-06-17T14:40:52.399Z,16
2017-06-17T14:41:53.837Z,16
2017-06-17T14:42:55.271Z,16
2017-06-17T14:43:56.710Z,12
2017-06-17T14:44:58.156Z,12